sensor_id;sensor_type;location;lat;lon;timestamp;temperature;humidity
37794;DHT22;23632;48.826;15.176;2023-01-10T00:01:32;7.00;75.60
37794;DHT22;23632;48.826;15.176;2023-01-10T00:03:59;7.00;75.60
37794;DHT22;23632;48.826;15.176;2023-01-10T00:06:26;7.10;75.60
37794;DHT22;23632;48.826;15.176;2023-01-10T00:08:53;7.10;75.60
37794;DHT22;23632;48.826;15.176;2023-01-10T00:11:23;7.00;75.50
37794;DHT22;23632;48.826;15.176;2023-01-10T00:14:09;7.00;75.60
37794;DHT22;23632;48.826;15.176;2023-01-10T00:16:37;7.00;75.70
37794;DHT22;23632;48.826;15.176;2023-01-10T00:19:05;7.00;75.70
37794;DHT22;23632;48.826;15.176;2023-01-10T00:21:34;7.10;75.80
37794;DHT22;23632;48.826;15.176;2023-01-10T00:24:01;7.10;75.70
37794;DHT22;23632;48.826;15.176;2023-01-10T00:26:46;7.10;75.60
37794;DHT22;23632;48.826;15.176;2023-01-10T00:29:18;7.10;75.70
37794;DHT22;23632;48.826;15.176;2023-01-10T00:31:46;7.10;75.60
37794;DHT22;23632;48.826;15.176;2023-01-10T00:34:13;7.10;75.70
37794;DHT22;23632;48.826;15.176;2023-01-10T00:36:40;7.20;75.70
37794;DHT22;23632;48.826;15.176;2023-01-10T00:39:08;7.10;75.70
37794;DHT22;23632;48.826;15.176;2023-01-10T00:41:37;7.10;75.60
37794;DHT22;23632;48.826;15.176;2023-01-10T00:44:23;7.10;75.50
37794;DHT22;23632;48.826;15.176;2023-01-10T00:46:52;7.10;75.70
37794;DHT22;23632;48.826;15.176;2023-01-10T00:49:19;7.10;75.70
37794;DHT22;23632;48.826;15.176;2023-01-10T00:51:46;7.10;75.70
37794;DHT22;23632;48.826;15.176;2023-01-10T00:54:14;7.10;75.70
37794;DHT22;23632;48.826;15.176;2023-01-10T00:56:41;7.20;75.70
37794;DHT22;23632;48.826;15.176;2023-01-10T00:59:08;7.20;75.60
37794;DHT22;23632;48.826;15.176;2023-01-10T01:01:35;7.20;75.50
37794;DHT22;23632;48.826;15.176;2023-01-10T01:04:03;7.20;75.40
37794;DHT22;23632;48.826;15.176;2023-01-10T01:06:30;7.20;75.40
37794;DHT22;23632;48.826;15.176;2023-01-10T01:08:57;7.20;75.50
37794;DHT22;23632;48.826;15.176;2023-01-10T01:11:24;7.10;75.50
37794;DHT22;23632;48.826;15.176;2023-01-10T01:13:51;7.10;75.50
37794;DHT22;23632;48.826;15.176;2023-01-10T01:16:19;7.20;75.60
37794;DHT22;23632;48.826;15.176;2023-01-10T01:18:47;7.20;75.40
37794;DHT22;23632;48.826;15.176;2023-01-10T01:21:14;7.20;75.50
37794;DHT22;23632;48.826;15.176;2023-01-10T01:23:41;7.20;76.30
37794;DHT22;23632;48.826;15.176;2023-01-10T01:26:08;7.10;75.40
37794;DHT22;23632;48.826;15.176;2023-01-10T01:28:36;7.10;75.50
37794;DHT22;23632;48.826;15.176;2023-01-10T01:31:08;7.00;75.60
37794;DHT22;23632;48.826;15.176;2023-01-10T01:33:36;7.10;75.70
37794;DHT22;23632;48.826;15.176;2023-01-10T01:36:07;7.10;75.70
37794;DHT22;23632;48.826;15.176;2023-01-10T01:38:37;7.10;75.60
37794;DHT22;23632;48.826;15.176;2023-01-10T01:41:05;7.20;75.60
37794;DHT22;23632;48.826;15.176;2023-01-10T01:44:09;7.20;75.60
37794;DHT22;23632;48.826;15.176;2023-01-10T01:46:41;7.20;75.40
37794;DHT22;23632;48.826;15.176;2023-01-10T01:49:19;7.30;75.30
37794;DHT22;23632;48.826;15.176;2023-01-10T01:51:50;7.30;75.20
37794;DHT22;23632;48.826;15.176;2023-01-10T01:54:24;7.20;75.20
37794;DHT22;23632;48.826;15.176;2023-01-10T01:56:56;7.20;75.30
37794;DHT22;23632;48.826;15.176;2023-01-10T01:59:34;7.10;75.30
37794;DHT22;23632;48.826;15.176;2023-01-10T02:02:11;7.10;75.40
37794;DHT22;23632;48.826;15.176;2023-01-10T02:05:04;7.10;75.30
37794;DHT22;23632;48.826;15.176;2023-01-10T02:07:37;7.10;75.40
37794;DHT22;23632;48.826;15.176;2023-01-10T02:12:53;7.00;75.60
37794;DHT22;23632;48.826;15.176;2023-01-10T02:15:21;7.10;75.70
37794;DHT22;23632;48.826;15.176;2023-01-10T02:17:50;7.10;75.70
37794;DHT22;23632;48.826;15.176;2023-01-10T02:20:20;7.10;75.70
37794;DHT22;23632;48.826;15.176;2023-01-10T02:32:08;7.10;75.80
37794;DHT22;23632;48.826;15.176;2023-01-10T02:38:35;7.10;75.60
37794;DHT22;23632;48.826;15.176;2023-01-10T02:41:18;7.20;75.60
37794;DHT22;23632;48.826;15.176;2023-01-10T02:44:02;7.20;75.50
37794;DHT22;23632;48.826;15.176;2023-01-10T02:46:36;7.20;75.50
37794;DHT22;23632;48.826;15.176;2023-01-10T02:49:04;7.20;75.60
37794;DHT22;23632;48.826;15.176;2023-01-10T02:51:32;7.10;75.60
37794;DHT22;23632;48.826;15.176;2023-01-10T03:02:54;7.20;75.60
37794;DHT22;23632;48.826;15.176;2023-01-10T03:12:33;7.10;75.90
37794;DHT22;23632;48.826;15.176;2023-01-10T03:15:05;7.10;76.00
37794;DHT22;23632;48.826;15.176;2023-01-10T03:17:33;7.10;76.00
37794;DHT22;23632;48.826;15.176;2023-01-10T03:20:03;7.10;76.00
37794;DHT22;23632;48.826;15.176;2023-01-10T03:22:35;7.10;76.10
37794;DHT22;23632;48.826;15.176;2023-01-10T03:25:05;7.20;76.20
37794;DHT22;23632;48.826;15.176;2023-01-10T03:27:49;7.10;76.30
37794;DHT22;23632;48.826;15.176;2023-01-10T03:32:59;7.10;76.70
37794;DHT22;23632;48.826;15.176;2023-01-10T03:38:53;7.10;76.90
37794;DHT22;23632;48.826;15.176;2023-01-10T03:50:02;6.90;78.00
37794;DHT22;23632;48.826;15.176;2023-01-10T03:52:32;6.90;77.90
37794;DHT22;23632;48.826;15.176;2023-01-10T03:55:00;6.90;77.90
37794;DHT22;23632;48.826;15.176;2023-01-10T03:57:28;6.90;78.00
37794;DHT22;23632;48.826;15.176;2023-01-10T03:59:56;6.90;78.10
37794;DHT22;23632;48.826;15.176;2023-01-10T04:02:26;6.90;78.10
37794;DHT22;23632;48.826;15.176;2023-01-10T04:04:55;6.80;78.20
37794;DHT22;23632;48.826;15.176;2023-01-10T04:07:22;6.80;78.40
37794;DHT22;23632;48.826;15.176;2023-01-10T04:09:49;6.70;79.40
37794;DHT22;23632;48.826;15.176;2023-01-10T04:12:17;6.60;78.70
37794;DHT22;23632;48.826;15.176;2023-01-10T04:14:44;6.60;78.80
37794;DHT22;23632;48.826;15.176;2023-01-10T04:17:14;6.70;78.80
37794;DHT22;23632;48.826;15.176;2023-01-10T04:19:41;6.70;78.80
37794;DHT22;23632;48.826;15.176;2023-01-10T04:22:09;6.80;78.70
37794;DHT22;23632;48.826;15.176;2023-01-10T04:24:37;6.80;78.60
37794;DHT22;23632;48.826;15.176;2023-01-10T04:27:04;6.80;78.70
37794;DHT22;23632;48.826;15.176;2023-01-10T04:29:31;6.80;78.60
37794;DHT22;23632;48.826;15.176;2023-01-10T04:31:58;6.80;79.40
37794;DHT22;23632;48.826;15.176;2023-01-10T04:34:26;6.80;78.70
37794;DHT22;23632;48.826;15.176;2023-01-10T04:36:53;6.70;78.80
37794;DHT22;23632;48.826;15.176;2023-01-10T04:39:21;6.80;78.70
37794;DHT22;23632;48.826;15.176;2023-01-10T04:41:49;6.90;78.60
37794;DHT22;23632;48.826;15.176;2023-01-10T04:44:16;6.90;78.40
37794;DHT22;23632;48.826;15.176;2023-01-10T04:46:43;7.00;78.30
37794;DHT22;23632;48.826;15.176;2023-01-10T04:49:11;7.10;78.10
37794;DHT22;23632;48.826;15.176;2023-01-10T04:51:38;7.00;78.00
37794;DHT22;23632;48.826;15.176;2023-01-10T04:54:06;7.10;78.10
37794;DHT22;23632;48.826;15.176;2023-01-10T04:56:33;7.10;78.00
37794;DHT22;23632;48.826;15.176;2023-01-10T04:59:00;7.10;77.90
37794;DHT22;23632;48.826;15.176;2023-01-10T05:01:27;7.10;77.90
37794;DHT22;23632;48.826;15.176;2023-01-10T05:03:55;7.10;77.90
37794;DHT22;23632;48.826;15.176;2023-01-10T05:06:23;7.10;77.90
37794;DHT22;23632;48.826;15.176;2023-01-10T05:08:51;7.00;77.90
37794;DHT22;23632;48.826;15.176;2023-01-10T05:11:19;7.00;78.10
37794;DHT22;23632;48.826;15.176;2023-01-10T05:13:46;7.10;78.10
37794;DHT22;23632;48.826;15.176;2023-01-10T05:16:14;7.10;78.10
37794;DHT22;23632;48.826;15.176;2023-01-10T05:18:41;7.00;78.00
37794;DHT22;23632;48.826;15.176;2023-01-10T05:21:11;7.00;78.10
37794;DHT22;23632;48.826;15.176;2023-01-10T05:23:39;7.00;78.20
37794;DHT22;23632;48.826;15.176;2023-01-10T05:26:14;6.90;78.30
37794;DHT22;23632;48.826;15.176;2023-01-10T05:28:43;6.90;78.60
37794;DHT22;23632;48.826;15.176;2023-01-10T05:31:12;6.80;78.60
37794;DHT22;23632;48.826;15.176;2023-01-10T05:33:48;6.90;78.60
37794;DHT22;23632;48.826;15.176;2023-01-10T05:36:17;7.00;78.60
37794;DHT22;23632;48.826;15.176;2023-01-10T05:38:45;7.00;78.50
37794;DHT22;23632;48.826;15.176;2023-01-10T05:41:12;6.90;78.70
37794;DHT22;23632;48.826;15.176;2023-01-10T05:43:39;6.90;78.80
37794;DHT22;23632;48.826;15.176;2023-01-10T05:46:06;6.90;78.70
37794;DHT22;23632;48.826;15.176;2023-01-10T05:48:33;6.90;78.80
37794;DHT22;23632;48.826;15.176;2023-01-10T05:51:00;6.90;78.80
37794;DHT22;23632;48.826;15.176;2023-01-10T05:53:27;6.90;78.80
37794;DHT22;23632;48.826;15.176;2023-01-10T05:55:59;6.90;78.70
37794;DHT22;23632;48.826;15.176;2023-01-10T05:58:27;6.90;78.80
37794;DHT22;23632;48.826;15.176;2023-01-10T06:00:56;6.90;78.80
37794;DHT22;23632;48.826;15.176;2023-01-10T06:03:24;6.90;78.80
37794;DHT22;23632;48.826;15.176;2023-01-10T06:05:53;6.90;78.80
37794;DHT22;23632;48.826;15.176;2023-01-10T06:08:21;6.90;78.90
37794;DHT22;23632;48.826;15.176;2023-01-10T06:10:49;6.80;79.00
37794;DHT22;23632;48.826;15.176;2023-01-10T06:13:16;6.90;78.90
37794;DHT22;23632;48.826;15.176;2023-01-10T06:15:43;6.90;79.70
37794;DHT22;23632;48.826;15.176;2023-01-10T06:18:11;6.90;78.90
37794;DHT22;23632;48.826;15.176;2023-01-10T06:20:41;6.80;78.90
37794;DHT22;23632;48.826;15.176;2023-01-10T06:23:09;6.90;78.90
37794;DHT22;23632;48.826;15.176;2023-01-10T06:25:37;6.90;78.80
37794;DHT22;23632;48.826;15.176;2023-01-10T06:28:07;6.90;78.80
37794;DHT22;23632;48.826;15.176;2023-01-10T06:30:35;6.90;78.90
37794;DHT22;23632;48.826;15.176;2023-01-10T06:33:04;7.00;78.90
37794;DHT22;23632;48.826;15.176;2023-01-10T06:35:33;7.00;78.80
37794;DHT22;23632;48.826;15.176;2023-01-10T06:38:02;7.00;78.80
37794;DHT22;23632;48.826;15.176;2023-01-10T06:40:29;6.90;78.80
37794;DHT22;23632;48.826;15.176;2023-01-10T06:42:56;6.90;78.80
37794;DHT22;23632;48.826;15.176;2023-01-10T06:45:24;7.00;78.70
37794;DHT22;23632;48.826;15.176;2023-01-10T06:47:52;7.00;78.60
37794;DHT22;23632;48.826;15.176;2023-01-10T06:50:19;7.10;78.60
37794;DHT22;23632;48.826;15.176;2023-01-10T06:52:53;7.10;78.60
37794;DHT22;23632;48.826;15.176;2023-01-10T06:55:27;7.10;78.60
37794;DHT22;23632;48.826;15.176;2023-01-10T06:58:03;7.00;78.50
37794;DHT22;23632;48.826;15.176;2023-01-10T07:00:30;7.00;78.60
37794;DHT22;23632;48.826;15.176;2023-01-10T07:02:58;7.00;78.50
37794;DHT22;23632;48.826;15.176;2023-01-10T07:05:26;6.90;78.60
37794;DHT22;23632;48.826;15.176;2023-01-10T07:07:53;6.90;78.60
37794;DHT22;23632;48.826;15.176;2023-01-10T07:10:20;6.90;78.60
37794;DHT22;23632;48.826;15.176;2023-01-10T07:12:47;6.90;78.60
37794;DHT22;23632;48.826;15.176;2023-01-10T07:15:14;6.90;78.50
37794;DHT22;23632;48.826;15.176;2023-01-10T07:17:41;7.00;78.40
37794;DHT22;23632;48.826;15.176;2023-01-10T07:20:09;7.00;79.20
37794;DHT22;23632;48.826;15.176;2023-01-10T07:22:36;6.80;78.50
37794;DHT22;23632;48.826;15.176;2023-01-10T07:25:04;6.80;78.60
37794;DHT22;23632;48.826;15.176;2023-01-10T07:27:32;6.80;78.60
37794;DHT22;23632;48.826;15.176;2023-01-10T07:29:59;6.90;78.70
37794;DHT22;23632;48.826;15.176;2023-01-10T07:32:27;6.90;78.60
37794;DHT22;23632;48.826;15.176;2023-01-10T07:34:54;7.00;78.40
37794;DHT22;23632;48.826;15.176;2023-01-10T07:37:20;7.00;78.30
37794;DHT22;23632;48.826;15.176;2023-01-10T07:39:47;7.00;78.40
37794;DHT22;23632;48.826;15.176;2023-01-10T07:42:15;7.00;78.40
37794;DHT22;23632;48.826;15.176;2023-01-10T07:44:42;7.00;78.30
37794;DHT22;23632;48.826;15.176;2023-01-10T07:47:09;7.10;78.30
37794;DHT22;23632;48.826;15.176;2023-01-10T07:49:36;7.10;78.20
37794;DHT22;23632;48.826;15.176;2023-01-10T07:52:03;7.00;78.00
37794;DHT22;23632;48.826;15.176;2023-01-10T07:54:34;7.00;78.30
37794;DHT22;23632;48.826;15.176;2023-01-10T07:57:01;6.90;78.30
37794;DHT22;23632;48.826;15.176;2023-01-10T07:59:28;7.00;78.40
37794;DHT22;23632;48.826;15.176;2023-01-10T08:01:56;7.10;78.30
37794;DHT22;23632;48.826;15.176;2023-01-10T08:04:23;7.10;78.20
37794;DHT22;23632;48.826;15.176;2023-01-10T08:06:50;7.10;78.10
37794;DHT22;23632;48.826;15.176;2023-01-10T08:09:20;7.20;78.10
37794;DHT22;23632;48.826;15.176;2023-01-10T08:11:47;7.10;77.90
37794;DHT22;23632;48.826;15.176;2023-01-10T08:14:14;7.10;78.00
37794;DHT22;23632;48.826;15.176;2023-01-10T08:16:41;7.10;77.90
37794;DHT22;23632;48.826;15.176;2023-01-10T08:19:08;7.20;77.90
37794;DHT22;23632;48.826;15.176;2023-01-10T08:21:38;7.20;77.80
37794;DHT22;23632;48.826;15.176;2023-01-10T08:24:05;7.10;77.60
37794;DHT22;23632;48.826;15.176;2023-01-10T08:26:32;7.10;77.60
37794;DHT22;23632;48.826;15.176;2023-01-10T08:29:00;7.10;77.70
37794;DHT22;23632;48.826;15.176;2023-01-10T08:31:27;7.10;77.70
37794;DHT22;23632;48.826;15.176;2023-01-10T08:33:54;7.10;77.80
37794;DHT22;23632;48.826;15.176;2023-01-10T08:36:22;7.20;77.80
37794;DHT22;23632;48.826;15.176;2023-01-10T08:38:49;7.20;77.80
37794;DHT22;23632;48.826;15.176;2023-01-10T08:41:18;7.20;78.40
37794;DHT22;23632;48.826;15.176;2023-01-10T08:43:48;7.30;77.60
37794;DHT22;23632;48.826;15.176;2023-01-10T08:46:16;7.30;77.50
37794;DHT22;23632;48.826;15.176;2023-01-10T08:48:45;7.40;77.60
37794;DHT22;23632;48.826;15.176;2023-01-10T08:51:14;7.50;77.40
37794;DHT22;23632;48.826;15.176;2023-01-10T08:53:41;7.50;77.30
37794;DHT22;23632;48.826;15.176;2023-01-10T08:56:09;7.50;77.00
37794;DHT22;23632;48.826;15.176;2023-01-10T08:58:37;7.50;77.10
37794;DHT22;23632;48.826;15.176;2023-01-10T09:01:06;7.50;77.10
37794;DHT22;23632;48.826;15.176;2023-01-10T09:03:33;7.50;77.10
37794;DHT22;23632;48.826;15.176;2023-01-10T09:06:01;7.50;77.00
37794;DHT22;23632;48.826;15.176;2023-01-10T09:08:28;7.50;77.20
37794;DHT22;23632;48.826;15.176;2023-01-10T09:10:58;7.50;77.10
37794;DHT22;23632;48.826;15.176;2023-01-10T09:13:28;7.50;77.10
37794;DHT22;23632;48.826;15.176;2023-01-10T09:15:56;7.50;76.80
37794;DHT22;23632;48.826;15.176;2023-01-10T09:18:25;7.50;77.00
37794;DHT22;23632;48.826;15.176;2023-01-10T09:20:53;7.60;77.00
37794;DHT22;23632;48.826;15.176;2023-01-10T09:23:21;7.60;76.60
37794;DHT22;23632;48.826;15.176;2023-01-10T09:25:51;7.50;76.80
37794;DHT22;23632;48.826;15.176;2023-01-10T09:28:21;7.50;76.80
37794;DHT22;23632;48.826;15.176;2023-01-10T09:30:52;7.50;76.80
37794;DHT22;23632;48.826;15.176;2023-01-10T09:33:19;7.50;76.60
37794;DHT22;23632;48.826;15.176;2023-01-10T09:35:46;7.50;76.70
37794;DHT22;23632;48.826;15.176;2023-01-10T09:38:16;7.60;76.80
37794;DHT22;23632;48.826;15.176;2023-01-10T09:50:05;7.70;76.60
37794;DHT22;23632;48.826;15.176;2023-01-10T09:53:27;7.70;76.40
37794;DHT22;23632;48.826;15.176;2023-01-10T09:55:56;7.80;76.10
37794;DHT22;23632;48.826;15.176;2023-01-10T09:58:27;7.80;76.10
37794;DHT22;23632;48.826;15.176;2023-01-10T10:01:03;7.80;75.90
37794;DHT22;23632;48.826;15.176;2023-01-10T10:03:47;7.80;76.00
37794;DHT22;23632;48.826;15.176;2023-01-10T10:06:21;7.90;75.70
37794;DHT22;23632;48.826;15.176;2023-01-10T10:08:50;7.90;75.40
37794;DHT22;23632;48.826;15.176;2023-01-10T10:11:36;7.70;75.20
37794;DHT22;23632;48.826;15.176;2023-01-10T10:14:17;7.70;76.00
37794;DHT22;23632;48.826;15.176;2023-01-10T10:20:02;7.60;75.70
37794;DHT22;23632;48.826;15.176;2023-01-10T10:31:57;7.70;75.70
37794;DHT22;23632;48.826;15.176;2023-01-10T10:34:29;7.60;75.80
37794;DHT22;23632;48.826;15.176;2023-01-10T10:37:12;7.70;75.90
37794;DHT22;23632;48.826;15.176;2023-01-10T10:39:57;7.80;75.40
37794;DHT22;23632;48.826;15.176;2023-01-10T10:42:29;7.80;75.20
37794;DHT22;23632;48.826;15.176;2023-01-10T10:45:37;7.90;75.30
37794;DHT22;23632;48.826;15.176;2023-01-10T10:48:18;8.00;75.40
37794;DHT22;23632;48.826;15.176;2023-01-10T10:53:28;8.00;75.10
37794;DHT22;23632;48.826;15.176;2023-01-10T10:55:58;8.10;74.80
37794;DHT22;23632;48.826;15.176;2023-01-10T10:58:26;8.10;74.70
37794;DHT22;23632;48.826;15.176;2023-01-10T11:00:57;8.10;74.90
37794;DHT22;23632;48.826;15.176;2023-01-10T11:06:12;8.20;74.60
37794;DHT22;23632;48.826;15.176;2023-01-10T11:08:43;8.20;74.60
37794;DHT22;23632;48.826;15.176;2023-01-10T11:11:26;8.20;74.60
37794;DHT22;23632;48.826;15.176;2023-01-10T11:13:58;8.20;74.60
37794;DHT22;23632;48.826;15.176;2023-01-10T11:16:32;8.30;74.70
37794;DHT22;23632;48.826;15.176;2023-01-10T11:19:10;8.30;74.70
37794;DHT22;23632;48.826;15.176;2023-01-10T11:21:40;8.40;74.80
37794;DHT22;23632;48.826;15.176;2023-01-10T11:24:38;8.40;74.80
37794;DHT22;23632;48.826;15.176;2023-01-10T11:27:31;8.40;74.20
37794;DHT22;23632;48.826;15.176;2023-01-10T11:30:25;8.50;74.80
37794;DHT22;23632;48.826;15.176;2023-01-10T11:33:01;8.50;74.00
37794;DHT22;23632;48.826;15.176;2023-01-10T11:35:34;8.50;74.20
37794;DHT22;23632;48.826;15.176;2023-01-10T11:40:54;8.60;74.10
37794;DHT22;23632;48.826;15.176;2023-01-10T11:43:34;8.60;73.50
37794;DHT22;23632;48.826;15.176;2023-01-10T11:46:12;8.50;72.80
37794;DHT22;23632;48.826;15.176;2023-01-10T11:49:02;8.50;73.10
37794;DHT22;23632;48.826;15.176;2023-01-10T11:51:37;8.50;73.20
37794;DHT22;23632;48.826;15.176;2023-01-10T11:54:23;8.60;73.80
37794;DHT22;23632;48.826;15.176;2023-01-10T11:57:03;8.50;73.40
37794;DHT22;23632;48.826;15.176;2023-01-10T11:59:34;8.50;73.60
37794;DHT22;23632;48.826;15.176;2023-01-10T12:04:54;8.60;73.30
37794;DHT22;23632;48.826;15.176;2023-01-10T12:07:22;8.70;73.70
37794;DHT22;23632;48.826;15.176;2023-01-10T12:09:58;8.60;73.00
37794;DHT22;23632;48.826;15.176;2023-01-10T12:12:28;8.70;73.30
37794;DHT22;23632;48.826;15.176;2023-01-10T12:14:58;8.80;73.30
37794;DHT22;23632;48.826;15.176;2023-01-10T12:20:05;8.80;73.40
37794;DHT22;23632;48.826;15.176;2023-01-10T12:22:41;8.80;73.40
37794;DHT22;23632;48.826;15.176;2023-01-10T12:25:19;8.80;73.20
37794;DHT22;23632;48.826;15.176;2023-01-10T12:27:47;8.80;72.90
37794;DHT22;23632;48.826;15.176;2023-01-10T12:30:39;8.80;73.20
37794;DHT22;23632;48.826;15.176;2023-01-10T12:33:22;8.60;73.20
37794;DHT22;23632;48.826;15.176;2023-01-10T12:44:58;8.40;74.00
37794;DHT22;23632;48.826;15.176;2023-01-10T12:47:51;8.40;74.10
37794;DHT22;23632;48.826;15.176;2023-01-10T12:50:36;8.40;73.70
37794;DHT22;23632;48.826;15.176;2023-01-10T12:53:30;8.40;73.60
37794;DHT22;23632;48.826;15.176;2023-01-10T12:56:04;8.40;73.80
37794;DHT22;23632;48.826;15.176;2023-01-10T12:58:40;8.40;73.40
37794;DHT22;23632;48.826;15.176;2023-01-10T13:01:17;8.40;73.40
37794;DHT22;23632;48.826;15.176;2023-01-10T13:03:53;8.40;74.00
37794;DHT22;23632;48.826;15.176;2023-01-10T13:06:36;8.40;73.80
37794;DHT22;23632;48.826;15.176;2023-01-10T13:09:08;8.30;73.40
37794;DHT22;23632;48.826;15.176;2023-01-10T13:11:53;8.30;73.70
37794;DHT22;23632;48.826;15.176;2023-01-10T13:17:50;8.30;73.80
37794;DHT22;23632;48.826;15.176;2023-01-10T13:20:39;8.30;73.50
37794;DHT22;23632;48.826;15.176;2023-01-10T13:23:29;8.30;73.60
37794;DHT22;23632;48.826;15.176;2023-01-10T13:26:04;8.20;73.60
37794;DHT22;23632;48.826;15.176;2023-01-10T13:28:38;8.30;74.00
37794;DHT22;23632;48.826;15.176;2023-01-10T13:31:20;8.20;73.70
37794;DHT22;23632;48.826;15.176;2023-01-10T13:34:04;8.20;73.50
37794;DHT22;23632;48.826;15.176;2023-01-10T13:37:15;8.20;73.80
37794;DHT22;23632;48.826;15.176;2023-01-10T13:39:57;8.10;73.40
37794;DHT22;23632;48.826;15.176;2023-01-10T13:42:31;8.00;72.90
37794;DHT22;23632;48.826;15.176;2023-01-10T13:45:20;8.00;73.40
37794;DHT22;23632;48.826;15.176;2023-01-10T14:03:46;8.20;73.40
37794;DHT22;23632;48.826;15.176;2023-01-10T14:11:51;8.20;73.50
37794;DHT22;23632;48.826;15.176;2023-01-10T14:14:39;8.20;73.60
37794;DHT22;23632;48.826;15.176;2023-01-10T14:17:20;8.20;73.30
37794;DHT22;23632;48.826;15.176;2023-01-10T14:25:31;8.30;73.50
37794;DHT22;23632;48.826;15.176;2023-01-10T14:28:00;8.20;72.70
37794;DHT22;23632;48.826;15.176;2023-01-10T14:30:32;8.10;73.10
37794;DHT22;23632;48.826;15.176;2023-01-10T14:33:11;8.10;73.00
37794;DHT22;23632;48.826;15.176;2023-01-10T14:35:46;8.20;73.10
37794;DHT22;23632;48.826;15.176;2023-01-10T14:38:28;8.20;72.80
37794;DHT22;23632;48.826;15.176;2023-01-10T14:51:49;8.10;72.70
37794;DHT22;23632;48.826;15.176;2023-01-10T14:54:19;8.10;72.50
37794;DHT22;23632;48.826;15.176;2023-01-10T14:56:50;8.00;72.50
37794;DHT22;23632;48.826;15.176;2023-01-10T15:02:16;7.90;72.40
37794;DHT22;23632;48.826;15.176;2023-01-10T15:04:57;7.90;72.40
37794;DHT22;23632;48.826;15.176;2023-01-10T15:07:33;7.90;72.50
37794;DHT22;23632;48.826;15.176;2023-01-10T15:10:21;7.90;72.40
37794;DHT22;23632;48.826;15.176;2023-01-10T15:12:53;8.00;72.40
37794;DHT22;23632;48.826;15.176;2023-01-10T15:15:28;8.00;72.30
37794;DHT22;23632;48.826;15.176;2023-01-10T15:18:19;8.00;72.30
37794;DHT22;23632;48.826;15.176;2023-01-10T15:20:55;7.90;72.20
37794;DHT22;23632;48.826;15.176;2023-01-10T15:23:23;7.90;72.50
37794;DHT22;23632;48.826;15.176;2023-01-10T15:25:55;7.80;72.40
37794;DHT22;23632;48.826;15.176;2023-01-10T15:28:26;7.90;72.50
37794;DHT22;23632;48.826;15.176;2023-01-10T15:30:55;7.90;72.40
37794;DHT22;23632;48.826;15.176;2023-01-10T15:33:29;7.80;72.30
37794;DHT22;23632;48.826;15.176;2023-01-10T15:36:15;7.80;72.10
37794;DHT22;23632;48.826;15.176;2023-01-10T15:38:45;7.70;72.20
37794;DHT22;23632;48.826;15.176;2023-01-10T15:41:19;7.60;71.90
37794;DHT22;23632;48.826;15.176;2023-01-10T15:43:48;7.60;71.90
37794;DHT22;23632;48.826;15.176;2023-01-10T15:46:21;7.60;72.20
37794;DHT22;23632;48.826;15.176;2023-01-10T15:48:59;7.50;71.80
37794;DHT22;23632;48.826;15.176;2023-01-10T15:51:39;7.50;72.10
37794;DHT22;23632;48.826;15.176;2023-01-10T15:59:28;7.30;72.30
37794;DHT22;23632;48.826;15.176;2023-01-10T16:02:29;7.10;72.30
37794;DHT22;23632;48.826;15.176;2023-01-10T16:05:13;7.10;72.90
37794;DHT22;23632;48.826;15.176;2023-01-10T16:07:45;7.00;73.10
37794;DHT22;23632;48.826;15.176;2023-01-10T16:10:19;6.90;72.90
37794;DHT22;23632;48.826;15.176;2023-01-10T16:12:48;6.90;73.00
37794;DHT22;23632;48.826;15.176;2023-01-10T16:15:38;6.90;72.90
37794;DHT22;23632;48.826;15.176;2023-01-10T16:18:07;6.90;72.90
37794;DHT22;23632;48.826;15.176;2023-01-10T16:20:37;6.90;72.80
37794;DHT22;23632;48.826;15.176;2023-01-10T16:23:20;6.80;72.80
37794;DHT22;23632;48.826;15.176;2023-01-10T16:25:55;6.80;72.80
37794;DHT22;23632;48.826;15.176;2023-01-10T16:28:24;6.80;72.80
37794;DHT22;23632;48.826;15.176;2023-01-10T16:30:54;6.80;72.80
37794;DHT22;23632;48.826;15.176;2023-01-10T16:33:24;6.70;72.70
37794;DHT22;23632;48.826;15.176;2023-01-10T16:35:55;6.80;72.70
37794;DHT22;23632;48.826;15.176;2023-01-10T16:38:24;6.80;72.80
37794;DHT22;23632;48.826;15.176;2023-01-10T16:41:00;6.90;72.80
37794;DHT22;23632;48.826;15.176;2023-01-10T16:43:48;6.80;72.40
37794;DHT22;23632;48.826;15.176;2023-01-10T16:46:15;6.80;72.60
37794;DHT22;23632;48.826;15.176;2023-01-10T16:48:43;6.80;72.50
37794;DHT22;23632;48.826;15.176;2023-01-10T16:51:17;6.80;72.60
37794;DHT22;23632;48.826;15.176;2023-01-10T16:53:49;6.80;72.30
37794;DHT22;23632;48.826;15.176;2023-01-10T16:56:22;6.90;72.30
37794;DHT22;23632;48.826;15.176;2023-01-10T16:58:51;6.80;72.10
37794;DHT22;23632;48.826;15.176;2023-01-10T17:01:25;6.80;72.00
37794;DHT22;23632;48.826;15.176;2023-01-10T17:03:58;6.80;72.00
37794;DHT22;23632;48.826;15.176;2023-01-10T17:06:25;6.80;72.00
37794;DHT22;23632;48.826;15.176;2023-01-10T17:08:52;6.70;72.80
37794;DHT22;23632;48.826;15.176;2023-01-10T17:11:23;6.70;72.10
37794;DHT22;23632;48.826;15.176;2023-01-10T17:13:57;6.70;72.10
37794;DHT22;23632;48.826;15.176;2023-01-10T17:16:25;6.50;72.20
37794;DHT22;23632;48.826;15.176;2023-01-10T17:18:52;6.50;72.60
37794;DHT22;23632;48.826;15.176;2023-01-10T17:21:21;6.40;72.60
37794;DHT22;23632;48.826;15.176;2023-01-10T17:23:49;6.40;72.80
37794;DHT22;23632;48.826;15.176;2023-01-10T17:26:17;6.50;72.70
37794;DHT22;23632;48.826;15.176;2023-01-10T17:28:45;6.50;72.70
37794;DHT22;23632;48.826;15.176;2023-01-10T17:31:16;6.50;72.70
37794;DHT22;23632;48.826;15.176;2023-01-10T17:33:45;6.60;72.60
37794;DHT22;23632;48.826;15.176;2023-01-10T17:36:14;6.60;72.50
37794;DHT22;23632;48.826;15.176;2023-01-10T17:38:44;6.60;72.40
37794;DHT22;23632;48.826;15.176;2023-01-10T17:41:11;6.60;72.00
37794;DHT22;23632;48.826;15.176;2023-01-10T17:43:39;6.60;72.30
37794;DHT22;23632;48.826;15.176;2023-01-10T17:46:06;6.70;72.30
37794;DHT22;23632;48.826;15.176;2023-01-10T17:48:34;6.70;72.10
37794;DHT22;23632;48.826;15.176;2023-01-10T17:51:02;6.80;72.10
37794;DHT22;23632;48.826;15.176;2023-01-10T17:53:29;6.90;72.10
37794;DHT22;23632;48.826;15.176;2023-01-10T17:55:57;6.90;71.90
37794;DHT22;23632;48.826;15.176;2023-01-10T17:58:27;6.90;71.70
37794;DHT22;23632;48.826;15.176;2023-01-10T18:00:55;6.90;71.90
37794;DHT22;23632;48.826;15.176;2023-01-10T18:03:23;6.90;71.80
37794;DHT22;23632;48.826;15.176;2023-01-10T18:05:57;6.90;71.50
37794;DHT22;23632;48.826;15.176;2023-01-10T18:08:25;7.00;71.20
37794;DHT22;23632;48.826;15.176;2023-01-10T18:11:00;7.00;71.50
37794;DHT22;23632;48.826;15.176;2023-01-10T18:13:28;7.00;71.20
37794;DHT22;23632;48.826;15.176;2023-01-10T18:15:58;7.00;71.30
37794;DHT22;23632;48.826;15.176;2023-01-10T18:18:26;7.00;71.30
37794;DHT22;23632;48.826;15.176;2023-01-10T18:20:55;7.00;71.30